sensor_id;sensor_type;location;lat;lon;timestamp;P1;durP1;ratioP1;P2;durP2;ratioP2
81365;SDS011;70822;51.990;22.766;2023-07-20T00:05:28;5.20;;;2.10;;
81365;SDS011;70822;51.990;22.766;2023-07-20T00:20:33;3.60;;;1.87;;
81365;SDS011;70822;51.990;22.766;2023-07-20T00:35:39;3.07;;;1.93;;
81365;SDS011;70822;51.990;22.766;2023-07-20T00:50:45;4.87;;;2.30;;
81365;SDS011;70822;51.990;22.766;2023-07-20T01:05:54;5.00;;;2.90;;
81365;SDS011;70822;51.990;22.766;2023-07-20T01:21:08;3.33;;;2.30;;
81365;SDS011;70822;51.990;22.766;2023-07-20T01:36:19;3.60;;;2.20;;
81365;SDS011;70822;51.990;22.766;2023-07-20T01:51:26;3.30;;;2.77;;
81365;SDS011;70822;51.990;22.766;2023-07-20T02:06:31;2.73;;;2.20;;
81365;SDS011;70822;51.990;22.766;2023-07-20T02:21:36;3.63;;;2.50;;
81365;SDS011;70822;51.990;22.766;2023-07-20T02:36:42;4.40;;;2.30;;
81365;SDS011;70822;51.990;22.766;2023-07-20T02:51:46;4.50;;;2.87;;
81365;SDS011;70822;51.990;22.766;2023-07-20T03:06:51;3.60;;;2.47;;
81365;SDS011;70822;51.990;22.766;2023-07-20T03:21:56;10.80;;;3.23;;
81365;SDS011;70822;51.990;22.766;2023-07-20T03:37:01;4.00;;;2.60;;
81365;SDS011;70822;51.990;22.766;2023-07-20T03:52:08;3.10;;;2.70;;
81365;SDS011;70822;51.990;22.766;2023-07-20T04:07:13;3.40;;;2.20;;
81365;SDS011;70822;51.990;22.766;2023-07-20T04:22:18;4.33;;;2.17;;
81365;SDS011;70822;51.990;22.766;2023-07-20T04:37:24;3.00;;;2.30;;
81365;SDS011;70822;51.990;22.766;2023-07-20T04:52:29;3.17;;;1.97;;
81365;SDS011;70822;51.990;22.766;2023-07-20T05:07:43;3.47;;;2.07;;
81365;SDS011;70822;51.990;22.766;2023-07-20T05:22:49;2.30;;;1.90;;
81365;SDS011;70822;51.990;22.766;2023-07-20T05:37:54;3.20;;;1.97;;
81365;SDS011;70822;51.990;22.766;2023-07-20T05:52:59;7.10;;;3.10;;
81365;SDS011;70822;51.990;22.766;2023-07-20T06:08:04;3.97;;;2.37;;
81365;SDS011;70822;51.990;22.766;2023-07-20T06:23:10;4.63;;;2.50;;
81365;SDS011;70822;51.990;22.766;2023-07-20T06:38:14;3.70;;;2.80;;
81365;SDS011;70822;51.990;22.766;2023-07-20T06:53:22;6.13;;;3.07;;
81365;SDS011;70822;51.990;22.766;2023-07-20T07:08:27;3.67;;;3.13;;
81365;SDS011;70822;51.990;22.766;2023-07-20T07:23:32;5.23;;;3.30;;
81365;SDS011;70822;51.990;22.766;2023-07-20T07:38:37;6.67;;;4.20;;
81365;SDS011;70822;51.990;22.766;2023-07-20T07:54:02;8.27;;;6.57;;
81365;SDS011;70822;51.990;22.766;2023-07-20T08:09:08;7.53;;;4.13;;
81365;SDS011;70822;51.990;22.766;2023-07-20T08:24:13;6.77;;;4.50;;
81365;SDS011;70822;51.990;22.766;2023-07-20T08:39:19;5.83;;;4.03;;
81365;SDS011;70822;51.990;22.766;2023-07-20T08:54:29;6.07;;;4.07;;
81365;SDS011;70822;51.990;22.766;2023-07-20T09:09:40;7.50;;;3.60;;
81365;SDS011;70822;51.990;22.766;2023-07-20T09:24:46;6.73;;;4.00;;
81365;SDS011;70822;51.990;22.766;2023-07-20T09:39:52;5.77;;;3.50;;
81365;SDS011;70822;51.990;22.766;2023-07-20T09:55:00;4.07;;;2.77;;
81365;SDS011;70822;51.990;22.766;2023-07-20T10:10:07;7.17;;;3.57;;
81365;SDS011;70822;51.990;22.766;2023-07-20T10:25:15;4.10;;;3.70;;
81365;SDS011;70822;51.990;22.766;2023-07-20T10:40:26;9.93;;;4.60;;
81365;SDS011;70822;51.990;22.766;2023-07-20T10:55:34;9.30;;;5.93;;
81365;SDS011;70822;51.990;22.766;2023-07-20T11:10:40;7.53;;;4.87;;
81365;SDS011;70822;51.990;22.766;2023-07-20T11:25:45;8.37;;;5.20;;
81365;SDS011;70822;51.990;22.766;2023-07-20T11:40:54;9.20;;;5.83;;
81365;SDS011;70822;51.990;22.766;2023-07-20T11:56:00;7.53;;;5.20;;
81365;SDS011;70822;51.990;22.766;2023-07-20T12:11:05;8.53;;;5.07;;
81365;SDS011;70822;51.990;22.766;2023-07-20T12:41:16;6.40;;;3.77;;
81365;SDS011;70822;51.990;22.766;2023-07-20T12:56:24;5.33;;;3.80;;
81365;SDS011;70822;51.990;22.766;2023-07-20T13:27:04;2.77;;;2.30;;
81365;SDS011;70822;51.990;22.766;2023-07-20T13:42:09;5.53;;;1.97;;
81365;SDS011;70822;51.990;22.766;2023-07-20T13:57:17;3.83;;;2.30;;
81365;SDS011;70822;51.990;22.766;2023-07-20T14:12:26;3.23;;;2.07;;
81365;SDS011;70822;51.990;22.766;2023-07-20T14:27:31;3.07;;;2.17;;
81365;SDS011;70822;51.990;22.766;2023-07-20T14:42:38;2.70;;;2.00;;
81365;SDS011;70822;51.990;22.766;2023-07-20T14:57:43;2.67;;;1.70;;
81365;SDS011;70822;51.990;22.766;2023-07-20T15:12:50;3.87;;;1.87;;
81365;SDS011;70822;51.990;22.766;2023-07-20T15:27:54;1.90;;;1.70;;
81365;SDS011;70822;51.990;22.766;2023-07-20T15:42:59;2.27;;;1.80;;
81365;SDS011;70822;51.990;22.766;2023-07-20T16:13:35;3.70;;;2.47;;
81365;SDS011;70822;51.990;22.766;2023-07-20T16:28:41;3.40;;;2.20;;
81365;SDS011;70822;51.990;22.766;2023-07-20T16:43:47;3.87;;;2.93;;
81365;SDS011;70822;51.990;22.766;2023-07-20T16:58:54;3.97;;;2.67;;
81365;SDS011;70822;51.990;22.766;2023-07-20T17:13:59;5.73;;;3.17;;
81365;SDS011;70822;51.990;22.766;2023-07-20T17:29:04;4.87;;;3.20;;
81365;SDS011;70822;51.990;22.766;2023-07-20T17:44:08;2.93;;;1.93;;
81365;SDS011;70822;51.990;22.766;2023-07-20T17:59:18;3.03;;;2.73;;
81365;SDS011;70822;51.990;22.766;2023-07-20T18:14:26;3.80;;;1.87;;
81365;SDS011;70822;51.990;22.766;2023-07-20T18:29:33;2.00;;;1.50;;
81365;SDS011;70822;51.990;22.766;2023-07-20T18:44:38;2.07;;;1.57;;
81365;SDS011;70822;51.990;22.766;2023-07-20T18:59:45;2.27;;;1.50;;
81365;SDS011;70822;51.990;22.766;2023-07-20T19:14:50;2.57;;;1.77;;
81365;SDS011;70822;51.990;22.766;2023-07-20T19:29:56;3.17;;;1.80;;
81365;SDS011;70822;51.990;22.766;2023-07-20T19:45:01;4.30;;;2.57;;
81365;SDS011;70822;51.990;22.766;2023-07-20T20:00:08;3.30;;;1.90;;
81365;SDS011;70822;51.990;22.766;2023-07-20T20:15:16;9.20;;;3.50;;
81365;SDS011;70822;51.990;22.766;2023-07-20T20:30:21;3.97;;;2.77;;
81365;SDS011;70822;51.990;22.766;2023-07-20T20:45:27;8.60;;;3.40;;
81365;SDS011;70822;51.990;22.766;2023-07-20T21:00:32;4.53;;;3.33;;
81365;SDS011;70822;51.990;22.766;2023-07-20T21:15:38;4.90;;;3.83;;
81365;SDS011;70822;51.990;22.766;2023-07-20T21:30:45;5.40;;;3.10;;
81365;SDS011;70822;51.990;22.766;2023-07-20T21:45:50;4.97;;;3.30;;
81365;SDS011;70822;51.990;22.766;2023-07-20T22:00:55;7.77;;;4.07;;
81365;SDS011;70822;51.990;22.766;2023-07-20T22:16:01;6.47;;;3.03;;
81365;SDS011;70822;51.990;22.766;2023-07-20T22:31:06;4.93;;;3.47;;
81365;SDS011;70822;51.990;22.766;2023-07-20T22:46:11;4.00;;;3.13;;
81365;SDS011;70822;51.990;22.766;2023-07-20T23:01:16;10.83;;;3.77;;
81365;SDS011;70822;51.990;22.766;2023-07-20T23:16:21;5.50;;;4.40;;
81365;SDS011;70822;51.990;22.766;2023-07-20T23:31:26;7.00;;;3.80;;
81365;SDS011;70822;51.990;22.766;2023-07-20T23:46:32;6.77;;;3.50;;
